createdAt,value
2023-02-25T00:02:13.475Z,95.00
2023-02-25T00:07:15.962Z,95.20
2023-02-25T00:12:17.989Z,95.80
2023-02-25T00:17:20.081Z,95.90
2023-02-25T00:22:22.186Z,94.90
2023-02-25T00:27:25.673Z,96.30
2023-02-25T00:32:28.171Z,95.60
2023-02-25T00:37:30.981Z,95.10
2023-02-25T00:42:33.268Z,96.00
2023-02-25T00:47:35.941Z,95.80
2023-02-25T00:52:38.560Z,96.00
2023-02-25T00:57:40.746Z,96.60
2023-02-25T01:02:45.656Z,95.70
2023-02-25T01:07:47.828Z,95.00
2023-02-25T01:12:49.965Z,95.20
2023-02-25T01:17:52.009Z,94.20
2023-02-25T01:22:54.039Z,94.50
2023-02-25T01:27:58.405Z,92.80
2023-02-25T01:33:01.599Z,92.90
2023-02-25T01:38:03.947Z,92.90
2023-02-25T01:43:07.948Z,92.40
2023-02-25T01:48:19.062Z,93.20
2023-02-25T01:53:33.414Z,89.40
2023-02-25T01:58:35.773Z,92.60
2023-02-25T02:03:39.784Z,91.40
2023-02-25T02:08:45.665Z,93.10
2023-02-25T02:13:56.535Z,92.40
2023-02-25T02:19:21.630Z,86.80
2023-02-25T02:25:03.406Z,85.40
2023-02-25T02:30:30.214Z,88.60
2023-02-25T02:36:02.038Z,88.70
2023-02-25T02:41:35.459Z,90.90
2023-02-25T02:46:47.743Z,92.50
2023-02-25T02:52:25.898Z,92.70
2023-02-25T02:57:33.069Z,92.90
2023-02-25T03:02:38.908Z,93.40
2023-02-25T03:07:51.362Z,94.00
2023-02-25T03:12:54.893Z,94.10
2023-02-25T03:18:07.028Z,92.00
2023-02-25T03:23:17.165Z,93.60
2023-02-25T03:28:33.948Z,92.20
2023-02-25T03:34:06.232Z,91.60
2023-02-25T03:39:20.951Z,93.40
2023-02-25T03:44:31.702Z,94.80
2023-02-25T03:49:59.705Z,87.80
2023-02-25T03:55:03.133Z,92.50
2023-02-25T04:00:17.811Z,93.10
2023-02-25T04:05:22.802Z,91.80
2023-02-25T04:10:26.498Z,85.60
2023-02-25T04:15:29.461Z,91.80
2023-02-25T04:20:32.202Z,85.10
2023-02-25T04:25:35.025Z,86.90
2023-02-25T04:30:37.620Z,92.30
2023-02-25T04:35:39.788Z,82.60
2023-02-25T04:40:41.972Z,84.70
2023-02-25T04:45:44.245Z,89.70
2023-02-25T04:50:46.508Z,89.90
2023-02-25T04:55:49.145Z,91.10
2023-02-25T05:00:51.150Z,90.60
2023-02-25T05:05:53.166Z,88.00
2023-02-25T05:10:55.278Z,87.80
2023-02-25T05:16:06.849Z,84.50
2023-02-25T05:21:16.676Z,78.30
2023-02-25T05:26:22.171Z,85.10
2023-02-25T05:31:25.259Z,79.40
2023-02-25T05:36:28.751Z,79.60
2023-02-25T05:41:31.420Z,90.20
2023-02-25T05:46:33.921Z,82.30
2023-02-25T05:51:36.068Z,76.40
2023-02-25T05:56:38.054Z,82.70
2023-02-25T06:01:41.928Z,83.60
2023-02-25T06:06:50.325Z,72.80
2023-02-25T06:11:52.412Z,72.10
2023-02-25T06:16:57.520Z,74.20
2023-02-25T06:21:59.603Z,72.70
2023-02-25T06:27:01.662Z,72.60
2023-02-25T06:32:03.963Z,74.10
2023-02-25T06:37:07.190Z,75.50
2023-02-25T06:42:10.646Z,77.80
2023-02-25T06:47:12.826Z,78.20
2023-02-25T06:52:15.619Z,78.70
2023-02-25T06:57:17.905Z,79.50
2023-02-25T07:02:20.424Z,81.60
2023-02-25T07:07:23.256Z,81.80
2023-02-25T07:12:25.315Z,81.70
2023-02-25T07:17:27.418Z,81.50
2023-02-25T07:22:29.482Z,81.90
2023-02-25T07:27:31.680Z,82.00
2023-02-25T07:32:33.827Z,81.70
2023-02-25T07:37:35.965Z,80.40
2023-02-25T07:42:37.952Z,80.00
2023-02-25T07:47:41.274Z,79.80
2023-02-25T07:52:43.592Z,76.60
2023-02-25T07:57:45.971Z,75.40
2023-02-25T08:02:48.131Z,74.50
2023-02-25T08:07:51.174Z,81.70
2023-02-25T08:12:53.437Z,78.00
2023-02-25T08:17:55.979Z,77.50
2023-02-25T08:22:59.168Z,75.80
2023-02-25T08:28:01.874Z,77.60
2023-02-25T08:33:04.608Z,72.00
2023-02-25T08:38:06.956Z,65.50
2023-02-25T08:43:10.402Z,78.30
2023-02-25T08:48:13.765Z,74.20
2023-02-25T08:53:16.219Z,60.40
2023-02-25T08:58:18.309Z,77.70
2023-02-25T09:03:20.412Z,69.40
2023-02-25T09:08:22.789Z,62.70
2023-02-25T09:13:24.949Z,73.70
2023-02-25T09:18:27.354Z,66.80
2023-02-25T09:23:29.608Z,74.40
2023-02-25T09:28:31.695Z,79.00
2023-02-25T09:33:36.218Z,62.40
2023-02-25T09:38:41.423Z,64.10
2023-02-25T09:43:44.456Z,58.90
2023-02-25T09:49:38.828Z,58.30
2023-02-25T09:54:47.665Z,55.30
2023-02-25T09:59:53.687Z,57.80
2023-02-25T10:05:30.448Z,53.30
2023-02-25T10:10:58.870Z,56.80
2023-02-25T10:16:16.081Z,60.70
2023-02-25T10:21:41.662Z,67.90
2023-02-25T10:26:50.944Z,65.40
2023-02-25T10:32:00.098Z,59.90
2023-02-25T10:37:05.754Z,64.20
2023-02-25T11:59:43.134Z,63.50
2023-02-25T12:05:16.917Z,64.70
2023-02-25T12:11:02.586Z,65.60
2023-02-25T12:16:54.284Z,62.50
2023-02-25T12:22:36.717Z,60.80
2023-02-25T12:28:19.894Z,57.50
2023-02-25T12:34:08.067Z,63.00
2023-02-25T12:39:38.344Z,58.00
2023-02-25T12:45:29.441Z,59.20
2023-02-25T12:51:22.113Z,62.60
2023-02-25T12:56:53.524Z,67.30
2023-02-25T13:02:16.309Z,71.50
2023-02-25T13:07:42.590Z,73.10
2023-02-25T13:13:18.516Z,73.30
2023-02-25T13:18:50.870Z,74.00
2023-02-25T13:24:33.274Z,73.10
2023-02-25T13:29:59.880Z,74.40
2023-02-25T13:35:51.899Z,73.90
2023-02-25T13:41:18.860Z,71.70
2023-02-25T13:46:48.481Z,73.00
2023-02-25T13:52:36.560Z,69.70
2023-02-25T13:58:16.519Z,67.80
2023-02-25T14:03:52.934Z,63.60
2023-02-25T14:09:26.146Z,64.70
2023-02-25T14:14:40.393Z,53.40
2023-02-25T14:25:05.642Z,55.60
2023-02-25T14:30:30.502Z,62.70
2023-02-25T14:35:35.362Z,65.80
2023-02-25T14:40:48.510Z,64.30
2023-02-25T14:46:30.681Z,64.60
2023-02-25T14:52:19.515Z,62.10
2023-02-25T14:58:06.310Z,63.70
2023-02-25T15:03:58.039Z,64.70
2023-02-25T15:09:28.802Z,62.70
2023-02-25T15:15:09.213Z,61.10
2023-02-25T15:20:33.252Z,68.40
2023-02-25T15:26:06.833Z,58.70
2023-02-25T15:31:28.640Z,62.20
2023-02-25T15:36:45.220Z,60.00
2023-02-25T15:42:03.230Z,59.20
2023-02-25T15:47:22.323Z,62.00
2023-02-25T15:52:52.937Z,62.40
2023-02-25T15:57:55.418Z,59.70
2023-02-25T16:03:03.671Z,66.30
2023-02-25T16:08:56.074Z,58.50
2023-02-25T16:14:00.613Z,63.30
2023-02-25T16:19:07.006Z,70.50
2023-02-25T16:24:14.056Z,71.90
2023-02-25T16:29:46.300Z,78.80
2023-02-25T16:50:16.035Z,76.10
2023-02-25T16:55:30.335Z,80.50
2023-02-25T17:00:34.478Z,82.10
2023-02-25T17:05:38.349Z,77.80
2023-02-25T17:10:56.152Z,78.10
2023-02-25T17:16:00.817Z,78.10
2023-02-25T17:21:26.228Z,80.70
2023-02-25T17:26:31.557Z,75.50
2023-02-25T17:31:54.092Z,84.50
2023-02-25T17:37:00.669Z,84.00
2023-02-25T17:42:03.226Z,85.40
2023-02-25T17:47:09.637Z,86.60
2023-02-25T17:52:26.234Z,85.60
2023-02-25T17:57:31.677Z,89.40
2023-02-25T18:02:36.561Z,84.10
2023-02-25T18:07:42.260Z,89.50
2023-02-25T18:12:48.715Z,88.90
2023-02-25T18:18:03.506Z,91.40
2023-02-25T18:23:21.733Z,92.60
2023-02-25T18:28:24.079Z,90.30
2023-02-25T18:33:26.167Z,92.20
2023-02-25T18:38:31.685Z,86.70
2023-02-25T18:43:38.989Z,91.80
2023-02-25T18:48:40.998Z,92.60
2023-02-25T18:53:43.494Z,89.50
2023-02-25T18:58:46.145Z,91.50
2023-02-25T19:03:48.586Z,92.10
2023-02-25T19:08:50.591Z,89.80
2023-02-25T19:13:53.600Z,89.20
2023-02-25T19:18:56.210Z,90.00
2023-02-25T19:23:58.264Z,89.50
2023-02-25T19:29:00.732Z,93.00
2023-02-25T19:34:03.205Z,90.50
2023-02-25T19:39:06.301Z,90.20
2023-02-25T19:44:09.410Z,90.40
2023-02-25T19:49:11.470Z,90.00
2023-02-25T19:54:13.538Z,88.70
2023-02-25T19:59:16.231Z,90.10
2023-02-25T20:04:18.490Z,87.70
2023-02-25T20:09:20.805Z,85.10
2023-02-25T20:14:28.075Z,84.90
2023-02-25T20:19:32.918Z,89.00
2023-02-25T20:24:35.359Z,90.10
2023-02-25T20:29:37.429Z,88.80
2023-02-25T20:34:39.716Z,92.80
2023-02-25T20:39:55.188Z,90.50
2023-02-25T20:44:59.055Z,87.40
2023-02-25T20:50:02.211Z,86.40
2023-02-25T20:55:06.831Z,85.10
2023-02-25T21:00:13.347Z,88.70
2023-02-25T21:05:16.640Z,92.00
2023-02-25T21:10:19.036Z,84.50
2023-02-25T21:15:21.035Z,91.60
2023-02-25T21:20:23.159Z,89.30
2023-02-25T21:25:25.710Z,83.80
2023-02-25T21:30:28.202Z,90.80
2023-02-25T21:35:30.340Z,89.50
2023-02-25T21:40:33.672Z,90.80
2023-02-25T21:45:35.786Z,87.50
2023-02-25T21:50:37.787Z,81.00
2023-02-25T21:55:39.956Z,82.50
2023-02-25T22:00:42.792Z,80.20
2023-02-25T22:05:46.967Z,79.10
2023-02-25T22:10:49.114Z,76.00
2023-02-25T22:15:51.514Z,80.60
2023-02-25T22:20:54.481Z,75.00
2023-02-25T22:26:01.205Z,80.00
2023-02-25T22:31:05.036Z,76.10
2023-02-25T22:36:08.226Z,90.00
2023-02-25T22:41:15.772Z,88.60
2023-02-25T22:46:24.042Z,84.20
2023-02-25T22:51:35.451Z,85.20
2023-02-25T22:56:37.810Z,79.10
2023-02-25T23:01:41.232Z,86.60
2023-02-25T23:06:45.303Z,78.00
2023-02-25T23:11:47.636Z,80.30
2023-02-25T23:16:49.619Z,80.40
2023-02-25T23:21:51.670Z,78.80
2023-02-25T23:26:54.363Z,77.40
2023-02-25T23:31:56.578Z,90.40
2023-02-25T23:36:58.743Z,75.50
2023-02-25T23:42:00.801Z,76.90
2023-02-25T23:47:03.008Z,76.30
2023-02-25T23:52:05.076Z,82.70
2023-02-25T23:57:07.231Z,75.40
